createdAt,value
2023-01-13T00:00:22.301Z,1.70
2023-01-13T00:02:56.275Z,2.72
2023-01-13T00:05:29.995Z,1.52
2023-01-13T00:08:06.315Z,4.18
2023-01-13T00:10:40.178Z,3.03
2023-01-13T00:13:13.685Z,2.30
2023-01-13T00:15:56.969Z,2.25
2023-01-13T00:18:30.827Z,2.13
2023-01-13T00:21:06.326Z,3.90
2023-01-13T00:23:42.000Z,2.42
2023-01-13T00:26:18.136Z,4.30
2023-01-13T00:28:51.838Z,2.22
2023-01-13T00:31:25.818Z,3.33
2023-01-13T00:34:00.642Z,6.22
2023-01-13T00:36:34.351Z,1.38
2023-01-13T00:39:09.265Z,4.70
2023-01-13T00:42:00.246Z,4.45
2023-01-13T00:44:33.922Z,3.92
2023-01-13T00:47:07.677Z,4.03
2023-01-13T00:49:41.273Z,5.20
2023-01-13T00:52:14.936Z,3.17
2023-01-13T00:54:49.741Z,5.22
2023-01-13T00:57:23.520Z,6.22
2023-01-13T00:59:57.018Z,5.38
2023-01-13T01:02:30.856Z,6.35
2023-01-13T01:05:04.410Z,3.97
2023-01-13T01:07:38.344Z,8.45
2023-01-13T01:10:13.718Z,4.97
2023-01-13T01:12:47.385Z,8.02
2023-01-13T01:15:20.831Z,6.95
2023-01-13T01:17:54.524Z,7.68
2023-01-13T01:20:28.046Z,7.72
2023-01-13T01:23:01.968Z,5.70
2023-01-13T01:25:36.767Z,7.00
2023-01-13T01:28:10.504Z,12.35
2023-01-13T01:30:43.999Z,4.97
2023-01-13T01:33:17.939Z,9.60
2023-01-13T01:35:51.401Z,7.82
2023-01-13T01:38:25.134Z,8.82
2023-01-13T01:41:00.027Z,7.15
2023-01-13T01:44:02.426Z,15.95
2023-01-13T01:46:38.863Z,7.40
2023-01-13T01:49:17.645Z,9.52
2023-01-13T01:51:54.834Z,12.75
2023-01-13T01:54:36.383Z,8.43
2023-01-13T01:57:16.208Z,7.95
2023-01-13T01:59:50.537Z,7.47
2023-01-13T02:02:24.427Z,11.63
2023-01-13T02:04:59.062Z,7.32
2023-01-13T02:07:35.270Z,9.55
2023-01-13T02:10:12.486Z,11.23
2023-01-13T02:12:49.560Z,10.63
2023-01-13T02:15:28.419Z,13.93
2023-01-13T02:18:25.094Z,13.80
2023-01-13T02:21:20.438Z,14.55
2023-01-13T02:24:46.653Z,9.52
2023-01-13T02:27:45.839Z,13.13
2023-01-13T02:30:48.547Z,15.27
2023-01-13T02:33:35.318Z,19.77
2023-01-13T02:36:17.824Z,10.88
2023-01-13T02:38:57.612Z,13.80
2023-01-13T02:41:57.084Z,16.67
2023-01-13T02:44:38.291Z,13.80
2023-01-13T02:47:20.528Z,23.60
2023-01-13T02:49:59.292Z,14.70
2023-01-13T02:52:37.718Z,16.55
2023-01-13T02:55:15.441Z,18.35
2023-01-13T02:57:50.878Z,14.52
2023-01-13T03:00:25.309Z,19.33
2023-01-13T03:03:00.795Z,18.98
2023-01-13T03:05:35.050Z,16.50
2023-01-13T03:08:23.882Z,19.40
2023-01-13T03:11:03.789Z,16.77
2023-01-13T03:13:56.875Z,12.82
2023-01-13T03:16:44.474Z,24.10
2023-01-13T03:19:30.178Z,18.48
2023-01-13T03:22:15.629Z,15.85
2023-01-13T03:24:52.902Z,15.13
2023-01-13T03:27:32.055Z,12.27
2023-01-13T03:32:45.297Z,23.15
2023-01-13T03:35:24.800Z,13.35
2023-01-13T03:38:03.968Z,13.27
2023-01-13T03:43:36.941Z,26.13
2023-01-13T03:46:15.869Z,29.88
2023-01-13T03:48:53.799Z,21.58
2023-01-13T03:51:32.407Z,24.80
2023-01-13T03:54:10.007Z,21.08
2023-01-13T03:56:46.489Z,26.95
2023-01-13T03:59:24.679Z,24.65
2023-01-13T04:02:02.835Z,30.73
2023-01-13T04:04:41.866Z,27.48
2023-01-13T04:07:22.978Z,20.30
2023-01-13T04:10:00.263Z,24.75
2023-01-13T04:12:53.559Z,40.77
2023-01-13T04:15:29.854Z,29.58
2023-01-13T04:18:10.564Z,33.67
2023-01-13T04:20:46.274Z,31.02
2023-01-13T04:23:22.666Z,28.58
2023-01-13T04:26:05.820Z,29.50
2023-01-13T04:28:40.745Z,21.08
2023-01-13T04:31:14.551Z,31.02
2023-01-13T04:33:48.053Z,36.88
2023-01-13T04:36:25.112Z,21.27
2023-01-13T04:39:00.033Z,29.15
2023-01-13T04:41:54.792Z,27.25
2023-01-13T04:44:28.514Z,27.45
2023-01-13T04:47:02.653Z,25.08
2023-01-13T04:49:36.218Z,20.42
2023-01-13T04:52:10.081Z,32.00
2023-01-13T04:54:44.993Z,26.45
2023-01-13T04:57:18.691Z,26.42
2023-01-13T04:59:52.385Z,32.85
2023-01-13T05:02:26.162Z,23.25
2023-01-13T05:04:59.739Z,28.45
2023-01-13T05:07:34.046Z,26.55
2023-01-13T05:10:10.517Z,28.02
2023-01-13T05:13:02.013Z,23.25
2023-01-13T05:15:53.016Z,31.17
2023-01-13T05:18:27.240Z,32.05
2023-01-13T05:21:00.828Z,29.75
2023-01-13T05:23:51.964Z,29.20
2023-01-13T05:26:27.055Z,26.10
2023-01-13T05:29:00.762Z,26.92
2023-01-13T05:31:34.341Z,27.13
2023-01-13T05:34:08.051Z,29.08
2023-01-13T05:36:41.901Z,25.48
2023-01-13T05:39:15.662Z,24.65
2023-01-13T05:42:19.504Z,33.92
2023-01-13T05:44:53.217Z,48.42
2023-01-13T05:47:27.006Z,19.98
2023-01-13T05:50:00.816Z,31.98
2023-01-13T05:52:34.935Z,27.40
2023-01-13T05:55:09.253Z,29.20
2023-01-13T05:57:44.625Z,23.40
2023-01-13T06:00:19.680Z,27.50
2023-01-13T06:02:53.537Z,30.10
2023-01-13T06:05:27.294Z,30.40
2023-01-13T06:08:01.785Z,27.25
2023-01-13T06:10:36.564Z,30.17
2023-01-13T06:13:11.505Z,34.53
2023-01-13T06:15:45.542Z,27.40
2023-01-13T06:18:19.140Z,25.95
2023-01-13T06:20:52.914Z,30.73
2023-01-13T06:23:26.399Z,24.42
2023-01-13T06:26:07.073Z,29.60
2023-01-13T06:28:42.052Z,30.05
2023-01-13T06:31:16.084Z,30.08
2023-01-13T06:33:54.008Z,27.65
2023-01-13T06:36:32.493Z,27.07
2023-01-13T06:39:06.169Z,30.67
2023-01-13T06:41:55.076Z,27.60
2023-01-13T06:44:30.315Z,25.80
2023-01-13T06:47:04.837Z,32.67
2023-01-13T06:49:38.543Z,24.48
2023-01-13T06:52:12.392Z,21.38
2023-01-13T06:54:46.021Z,32.38
2023-01-13T06:57:20.183Z,26.73
2023-01-13T06:59:55.434Z,28.25
2023-01-13T07:02:29.476Z,25.38
2023-01-13T07:05:03.521Z,26.05
2023-01-13T07:07:38.223Z,22.85
2023-01-13T07:10:14.266Z,25.95
2023-01-13T07:13:07.532Z,23.00
2023-01-13T07:15:42.662Z,20.27
2023-01-13T07:18:16.572Z,26.25
2023-01-13T07:20:54.773Z,26.50
2023-01-13T07:23:30.088Z,26.08
2023-01-13T07:26:03.798Z,24.65
2023-01-13T07:28:38.578Z,24.75
2023-01-13T07:31:18.757Z,25.92
2023-01-13T07:33:52.641Z,25.58
2023-01-13T07:36:26.189Z,32.42
2023-01-13T07:38:59.924Z,28.15
2023-01-13T07:41:50.971Z,26.30
2023-01-13T07:44:24.977Z,39.53
2023-01-13T07:47:00.053Z,28.27
2023-01-13T07:49:34.093Z,29.92
2023-01-13T07:52:08.817Z,30.55
2023-01-13T07:54:42.577Z,36.42
2023-01-13T07:57:16.155Z,35.10
2023-01-13T07:59:49.923Z,29.63
2023-01-13T08:02:25.099Z,28.20
2023-01-13T08:04:59.158Z,25.10
2023-01-13T08:07:32.721Z,28.25
2023-01-13T08:10:07.606Z,29.30
2023-01-13T08:12:58.678Z,22.90
2023-01-13T08:15:32.771Z,30.23
2023-01-13T08:18:07.825Z,32.85
2023-01-13T08:20:41.815Z,29.00
2023-01-13T08:23:20.123Z,28.00
2023-01-13T08:25:54.092Z,33.28
2023-01-13T08:28:27.712Z,31.00
2023-01-13T08:31:01.916Z,26.27
2023-01-13T08:33:37.538Z,26.42
2023-01-13T08:36:13.154Z,20.20
2023-01-13T08:38:46.669Z,27.88
2023-01-13T08:41:40.382Z,34.00
2023-01-13T08:44:13.981Z,26.88
2023-01-13T08:46:47.820Z,34.80
2023-01-13T08:49:23.359Z,24.60
2023-01-13T08:51:57.491Z,31.38
2023-01-13T08:54:31.084Z,26.88
2023-01-13T08:57:05.063Z,28.05
2023-01-13T08:59:40.169Z,27.50
2023-01-13T09:02:15.810Z,31.35
2023-01-13T09:04:52.233Z,24.58
2023-01-13T09:07:25.953Z,22.08
2023-01-13T09:09:59.442Z,31.98
2023-01-13T09:12:51.228Z,34.70
2023-01-13T09:15:24.948Z,17.85
2023-01-13T09:17:58.684Z,21.10
2023-01-13T09:20:33.579Z,22.83
2023-01-13T09:23:10.259Z,22.08
2023-01-13T09:25:44.596Z,27.88
2023-01-13T09:28:18.440Z,21.35
2023-01-13T09:30:52.066Z,21.35
2023-01-13T09:33:43.148Z,22.83
2023-01-13T09:36:18.070Z,19.63
2023-01-13T09:38:51.885Z,20.55
2023-01-13T09:41:46.311Z,21.25
2023-01-13T09:44:25.624Z,14.77
2023-01-13T09:49:39.655Z,21.90
2023-01-13T09:52:19.316Z,15.82
2023-01-13T09:54:58.779Z,15.77
2023-01-13T09:57:37.549Z,14.60
2023-01-13T10:00:14.692Z,18.60
2023-01-13T10:03:08.878Z,14.77
2023-01-13T10:05:46.387Z,28.75
2023-01-13T10:08:23.567Z,21.95
2023-01-13T10:11:00.051Z,16.20
2023-01-13T10:13:33.328Z,22.75
2023-01-13T10:16:23.645Z,22.33
2023-01-13T10:19:05.884Z,13.82
2023-01-13T10:22:15.114Z,17.30
2023-01-13T10:25:18.351Z,17.65
2023-01-13T10:27:54.974Z,17.27
2023-01-13T10:30:34.227Z,11.55
2023-01-13T10:33:13.175Z,14.20
2023-01-13T10:35:56.334Z,19.30
2023-01-13T10:38:36.901Z,11.50
2023-01-13T10:41:24.928Z,20.63
2023-01-13T10:44:02.290Z,20.85
2023-01-13T10:46:52.858Z,15.18
2023-01-13T10:49:31.053Z,14.75
2023-01-13T10:52:24.741Z,14.80
2023-01-13T10:54:58.948Z,12.35
2023-01-13T10:57:37.386Z,14.13
2023-01-13T11:00:27.871Z,12.85
2023-01-13T11:03:19.668Z,15.32
2023-01-13T11:05:55.420Z,17.45
2023-01-13T11:08:31.646Z,20.15
2023-01-13T11:11:27.439Z,10.82
2023-01-13T11:14:23.565Z,16.33
2023-01-13T11:17:01.991Z,15.80
2023-01-13T11:19:38.130Z,17.23
2023-01-13T11:22:18.311Z,19.80
2023-01-13T11:24:56.143Z,13.73
2023-01-13T11:27:42.360Z,22.23
2023-01-13T11:30:29.691Z,20.25
2023-01-13T11:33:18.333Z,16.27
2023-01-13T11:36:02.353Z,27.50
2023-01-13T11:38:46.229Z,11.45
2023-01-13T11:41:37.852Z,14.88
2023-01-13T11:44:20.519Z,15.73
2023-01-13T11:46:55.880Z,14.73
2023-01-13T11:49:31.981Z,13.45
2023-01-13T11:52:15.121Z,13.55
2023-01-13T11:55:02.728Z,9.13
2023-01-13T11:58:12.786Z,14.00
2023-01-13T12:01:17.375Z,13.18
2023-01-13T12:04:06.567Z,14.60
2023-01-13T12:06:43.454Z,14.55
2023-01-13T12:09:32.519Z,13.68
2023-01-13T12:12:22.651Z,15.85
2023-01-13T12:15:19.562Z,15.52
2023-01-13T12:18:12.582Z,11.35
2023-01-13T12:21:01.452Z,9.70
2023-01-13T12:23:41.504Z,15.20
2023-01-13T12:26:17.117Z,14.40
2023-01-13T12:28:55.256Z,11.85
2023-01-13T12:31:30.417Z,11.52
2023-01-13T12:34:22.963Z,11.85
2023-01-13T12:37:07.612Z,16.25
2023-01-13T12:39:49.617Z,10.68
2023-01-13T12:42:45.708Z,14.82
2023-01-13T12:45:26.899Z,15.77
2023-01-13T12:48:01.481Z,20.50
2023-01-13T12:51:00.600Z,16.30
2023-01-13T12:53:38.565Z,13.20
2023-01-13T12:56:44.353Z,20.25
2023-01-13T12:59:36.881Z,15.13
2023-01-13T13:02:31.436Z,13.20
2023-01-13T13:05:48.273Z,16.05
2023-01-13T13:08:26.549Z,14.73
2023-01-13T13:11:52.325Z,18.60
2023-01-13T13:15:03.199Z,17.98
2023-01-13T13:17:41.536Z,22.67
2023-01-13T13:20:54.044Z,16.60
2023-01-13T13:23:47.850Z,19.73
2023-01-13T13:26:42.619Z,17.27
2023-01-13T13:29:45.107Z,12.32
2023-01-13T13:32:53.716Z,15.25
2023-01-13T13:35:38.881Z,16.48
2023-01-13T13:38:41.772Z,15.43
2023-01-13T13:41:38.109Z,14.20
2023-01-13T13:44:37.877Z,15.18
2023-01-13T13:47:11.914Z,15.52
2023-01-13T13:49:49.856Z,22.92
2023-01-13T13:52:29.963Z,16.75
2023-01-13T13:55:08.853Z,10.85
2023-01-13T13:57:47.938Z,17.10
2023-01-13T14:00:26.257Z,9.38
2023-01-13T14:03:01.501Z,12.30
2023-01-13T14:05:37.021Z,23.83
2023-01-13T14:08:16.423Z,17.33
2023-01-13T14:10:50.401Z,12.15
2023-01-13T14:13:25.977Z,24.55
2023-01-13T14:16:04.024Z,16.48
2023-01-13T14:18:48.170Z,11.23
2023-01-13T14:21:26.166Z,14.10
2023-01-13T14:24:04.578Z,12.57
2023-01-13T14:26:39.309Z,17.98
2023-01-13T14:29:19.341Z,16.80
2023-01-13T14:31:55.723Z,12.88
2023-01-13T14:34:33.282Z,17.45
2023-01-13T14:37:25.912Z,18.40
2023-01-13T14:39:59.533Z,18.75
2023-01-13T14:42:35.415Z,14.77
2023-01-13T14:45:24.591Z,16.55
2023-01-13T14:48:02.030Z,19.42
2023-01-13T14:50:35.655Z,16.27
2023-01-13T14:53:28.349Z,23.80
2023-01-13T14:56:22.209Z,14.50
2023-01-13T14:58:56.117Z,19.17
2023-01-13T15:01:31.034Z,14.55
2023-01-13T15:04:28.389Z,11.75
2023-01-13T15:07:02.907Z,13.13
2023-01-13T15:09:41.183Z,14.55
2023-01-13T15:12:18.635Z,17.60
2023-01-13T15:14:52.548Z,13.57
2023-01-13T15:17:26.097Z,20.23
2023-01-13T15:20:03.112Z,11.75
2023-01-13T15:22:37.013Z,17.17
2023-01-13T15:25:11.024Z,10.80
2023-01-13T15:27:46.226Z,13.18
2023-01-13T15:30:24.900Z,14.13
2023-01-13T15:32:59.324Z,8.88
2023-01-13T15:35:43.878Z,11.27
2023-01-13T15:38:19.823Z,6.38
2023-01-13T15:40:53.716Z,4.47
2023-01-13T15:43:44.733Z,5.70
2023-01-13T15:46:37.630Z,7.53
2023-01-13T15:49:21.899Z,4.40
2023-01-13T15:51:57.081Z,7.25
2023-01-13T15:54:30.780Z,6.75
2023-01-13T15:57:04.865Z,5.97
2023-01-13T15:59:38.376Z,5.95
2023-01-13T16:02:15.907Z,9.77
2023-01-13T16:04:50.942Z,10.40
2023-01-13T16:07:26.854Z,7.15
2023-01-13T16:10:01.701Z,7.00
2023-01-13T16:12:37.493Z,7.03
2023-01-13T16:15:14.210Z,6.20
2023-01-13T16:17:48.238Z,5.40
2023-01-13T16:20:22.040Z,7.18
2023-01-13T16:22:57.428Z,15.15
2023-01-13T16:25:31.322Z,12.70
2023-01-13T16:28:05.295Z,15.05
2023-01-13T16:30:39.060Z,12.77
2023-01-13T16:33:13.046Z,18.48
2023-01-13T16:36:10.943Z,13.30
2023-01-13T16:38:42.122Z,16.08
2023-01-13T16:41:16.007Z,18.58
2023-01-13T16:43:50.020Z,9.65
2023-01-13T16:46:26.176Z,13.43
2023-01-13T16:49:03.812Z,12.48
2023-01-13T16:51:37.452Z,12.90
2023-01-13T16:54:12.925Z,10.02
2023-01-13T16:56:46.449Z,12.90
2023-01-13T16:59:21.470Z,13.20
2023-01-13T17:01:55.134Z,13.95
2023-01-13T17:04:29.044Z,15.30
2023-01-13T17:07:05.938Z,10.65
2023-01-13T17:09:41.095Z,12.38
2023-01-13T17:12:14.714Z,14.23
2023-01-13T17:14:48.515Z,8.70
2023-01-13T17:17:26.818Z,9.55
2023-01-13T17:20:00.964Z,4.93
2023-01-13T17:22:34.637Z,6.70
2023-01-13T17:25:12.158Z,12.70
2023-01-13T17:27:45.725Z,8.43
2023-01-13T17:30:19.497Z,11.90
2023-01-13T17:32:53.069Z,14.70
2023-01-13T17:35:26.815Z,9.68
2023-01-13T17:38:01.883Z,8.93
2023-01-13T17:40:37.688Z,8.02
2023-01-13T17:43:11.266Z,9.35
2023-01-13T17:45:45.352Z,9.82
2023-01-13T17:48:19.459Z,10.85
2023-01-13T17:50:53.626Z,8.13
2023-01-13T17:53:28.219Z,9.27
2023-01-13T17:56:03.903Z,10.43
2023-01-13T17:58:38.015Z,13.40
2023-01-13T18:01:14.751Z,12.50
2023-01-13T18:03:48.688Z,9.77
2023-01-13T18:06:24.340Z,11.90
2023-01-13T18:08:59.603Z,8.30
2023-01-13T18:11:34.739Z,11.05
2023-01-13T18:14:09.463Z,7.70
2023-01-13T18:16:43.530Z,11.40
2023-01-13T18:19:34.816Z,9.75
2023-01-13T18:22:30.481Z,10.75
2023-01-13T18:25:22.075Z,12.80
2023-01-13T18:27:57.604Z,13.07
2023-01-13T18:30:31.181Z,10.73
2023-01-13T18:33:04.985Z,8.25
2023-01-13T18:35:39.711Z,12.65
2023-01-13T18:38:14.550Z,10.60
2023-01-13T18:40:48.207Z,6.88
2023-01-13T18:43:22.440Z,10.07
2023-01-13T18:45:56.130Z,12.75
2023-01-13T18:48:32.624Z,9.07
2023-01-13T18:51:06.542Z,9.32
2023-01-13T18:53:40.326Z,6.85
2023-01-13T18:56:15.510Z,10.80
2023-01-13T18:58:52.395Z,9.13
2023-01-13T19:01:27.806Z,7.40
2023-01-13T19:04:03.834Z,6.03
2023-01-13T19:06:42.257Z,8.02
2023-01-13T19:09:16.696Z,5.53
2023-01-13T19:11:51.437Z,7.68
2023-01-13T19:14:37.404Z,3.90
2023-01-13T19:17:13.708Z,6.10
2023-01-13T19:19:50.694Z,7.15
2023-01-13T19:22:28.546Z,7.75
2023-01-13T19:25:03.765Z,8.93
2023-01-13T19:27:37.589Z,9.15
2023-01-13T19:30:14.780Z,8.07
2023-01-13T19:32:48.454Z,10.63
2023-01-13T19:35:22.392Z,5.97
2023-01-13T19:37:56.365Z,16.00
2023-01-13T19:40:30.172Z,7.47
2023-01-13T19:43:21.211Z,9.70
2023-01-13T19:45:56.430Z,11.27
2023-01-13T19:48:30.919Z,11.40
2023-01-13T19:51:05.619Z,7.95
2023-01-13T19:53:39.132Z,13.13
2023-01-13T19:56:15.271Z,7.90
2023-01-13T19:58:50.686Z,13.52
2023-01-13T20:01:31.716Z,8.38
2023-01-13T20:04:07.625Z,11.57
2023-01-13T20:06:41.530Z,7.40
2023-01-13T20:09:15.072Z,8.50
2023-01-13T20:11:52.561Z,8.32
2023-01-13T20:14:26.667Z,7.13
2023-01-13T20:17:01.826Z,8.27
2023-01-13T20:19:35.589Z,10.35
2023-01-13T20:22:10.487Z,10.77
2023-01-13T20:24:44.357Z,8.23
2023-01-13T20:27:19.003Z,6.97
2023-01-13T20:29:52.663Z,10.50
2023-01-13T20:32:27.752Z,11.00
2023-01-13T20:35:01.461Z,5.97
2023-01-13T20:37:35.700Z,6.45
2023-01-13T20:40:14.374Z,6.88
2023-01-13T20:45:28.040Z,5.28
2023-01-13T20:48:05.990Z,4.03
2023-01-13T20:50:40.025Z,8.73
2023-01-13T20:53:13.676Z,9.10
2023-01-13T20:55:47.762Z,7.20
2023-01-13T20:58:21.433Z,7.72
2023-01-13T21:00:59.290Z,7.85
2023-01-13T21:03:34.859Z,6.18
2023-01-13T21:06:09.116Z,8.38
2023-01-13T21:08:42.699Z,10.50
2023-01-13T21:11:37.140Z,7.80
2023-01-13T21:14:32.912Z,12.18
2023-01-13T21:17:07.478Z,9.52
2023-01-13T21:19:41.490Z,9.27
2023-01-13T21:22:15.258Z,7.03
2023-01-13T21:24:48.974Z,11.07
2023-01-13T21:27:23.055Z,6.25
2023-01-13T21:29:56.818Z,9.23
2023-01-13T21:32:30.556Z,12.90
2023-01-13T21:35:06.290Z,8.73
2023-01-13T21:37:41.888Z,6.60
2023-01-13T21:40:15.695Z,9.88
2023-01-13T21:43:06.933Z,8.15
2023-01-13T21:45:57.973Z,13.00
2023-01-13T21:48:31.847Z,14.75
2023-01-13T21:51:07.037Z,6.50
2023-01-13T21:53:40.834Z,7.82
2023-01-13T21:56:14.448Z,14.95
2023-01-13T21:58:48.647Z,6.07
2023-01-13T22:01:22.489Z,10.35
2023-01-13T22:04:14.525Z,11.15
2023-01-13T22:06:49.437Z,14.68
2023-01-13T22:09:23.247Z,9.23
2023-01-13T22:11:57.174Z,12.30
2023-01-13T22:14:31.222Z,17.60
2023-01-13T22:17:05.061Z,8.52
2023-01-13T22:19:42.108Z,6.93
2023-01-13T22:22:18.842Z,11.45
2023-01-13T22:24:54.236Z,14.25
2023-01-13T22:27:28.975Z,10.18
2023-01-13T22:30:02.870Z,26.25
2023-01-13T22:32:38.968Z,14.20
2023-01-13T22:35:14.510Z,9.25
2023-01-13T22:37:49.468Z,15.07
2023-01-13T22:40:23.226Z,20.23
2023-01-13T22:42:56.808Z,10.32
2023-01-13T22:45:30.723Z,11.85
2023-01-13T22:48:04.406Z,15.10
2023-01-13T22:50:38.448Z,14.93
2023-01-13T22:53:13.333Z,12.15
2023-01-13T22:55:54.698Z,13.60
2023-01-13T22:58:28.873Z,11.15
2023-01-13T23:01:10.773Z,13.38
2023-01-13T23:03:46.323Z,16.30
2023-01-13T23:06:21.984Z,14.23
2023-01-13T23:08:57.631Z,10.13
2023-01-13T23:11:31.528Z,15.25
2023-01-13T23:14:07.426Z,11.80
2023-01-13T23:16:42.106Z,11.82
2023-01-13T23:19:15.693Z,8.88
2023-01-13T23:21:49.543Z,9.93
2023-01-13T23:24:25.922Z,10.77
2023-01-13T23:26:59.844Z,11.90
2023-01-13T23:29:33.440Z,10.25
2023-01-13T23:32:07.326Z,8.32
2023-01-13T23:34:40.867Z,13.02
2023-01-13T23:37:14.603Z,9.20
2023-01-13T23:39:49.996Z,11.23
2023-01-13T23:42:23.878Z,15.98
2023-01-13T23:44:57.445Z,8.35
2023-01-13T23:47:31.329Z,11.75
2023-01-13T23:50:05.460Z,10.35
2023-01-13T23:52:39.437Z,11.40
2023-01-13T23:55:14.429Z,8.95
2023-01-13T23:57:48.181Z,18.63
